Terminal Aerodrome Forecast
Issued by NWS Goodland, KS

Home | Current Version | Previous Version | Text Only | Print | Product List | Glossary On
Versions: 1 2 3 4 5 6 7 8 9 10 11 12 13 14 15 16
000
FTUS43 KGLD 261148 CCA
TAFGLD
TAF COR
KGLD 261148Z 2612/2712 17013KT 3SM BR OVC004
     FM261500 18014KT P6SM BKN010
     FM261700 16015G24KT P6SM SCT080
     FM270100 17012KT P6SM SCT060
     FM270900 17007KT 6SM BR SCT020=

USA.gov is the U.S. government's official web portal to all federal, state and local government web resources and services.